createdAt,value
2017-11-27T00:02:27.023Z,74.70
2017-11-27T00:04:56.028Z,74.80
2017-11-27T00:07:25.064Z,75.40
2017-11-27T00:09:53.287Z,75.40
2017-11-27T00:12:21.523Z,75.70
2017-11-27T00:14:49.778Z,76.00
2017-11-27T00:17:18.012Z,77.30
2017-11-27T00:19:47.015Z,76.40
2017-11-27T00:22:16.112Z,76.30
2017-11-27T00:24:44.347Z,76.30
2017-11-27T00:27:12.580Z,75.90
2017-11-27T00:29:40.840Z,76.90
2017-11-27T00:32:09.075Z,77.70
2017-11-27T00:34:37.319Z,77.30
2017-11-27T00:37:05.583Z,78.80
2017-11-27T00:39:33.827Z,79.50
2017-11-27T00:42:02.069Z,78.20
2017-11-27T00:44:30.731Z,77.50
2017-11-27T00:46:58.963Z,77.00
2017-11-27T00:49:27.200Z,76.80
2017-11-27T00:51:55.455Z,76.80
2017-11-27T00:54:23.696Z,76.10
2017-11-27T00:56:51.923Z,77.30
2017-11-27T00:59:20.175Z,78.20
2017-11-27T01:01:48.411Z,77.90
2017-11-27T01:04:16.879Z,76.30
2017-11-27T01:06:45.352Z,77.60
2017-11-27T01:09:13.594Z,78.40
2017-11-27T01:11:41.831Z,78.00
2017-11-27T01:14:10.086Z,77.90
2017-11-27T01:16:38.326Z,78.60
2017-11-27T01:19:06.563Z,79.90
2017-11-27T01:21:34.824Z,80.10
2017-11-27T01:24:03.059Z,79.60
2017-11-27T01:26:31.300Z,78.60
2017-11-27T01:29:00.518Z,79.20
2017-11-27T01:31:28.755Z,79.30
2017-11-27T01:33:56.992Z,78.60
2017-11-27T01:36:25.252Z,79.30
2017-11-27T01:38:53.483Z,79.10
2017-11-27T01:41:21.723Z,76.80
2017-11-27T01:43:49.980Z,77.70
2017-11-27T01:46:18.210Z,79.10
2017-11-27T01:48:46.452Z,79.90
2017-11-27T01:53:49.930Z,77.50
2017-11-27T01:56:18.955Z,77.70
2017-11-27T01:58:47.193Z,77.70
2017-11-27T02:01:15.427Z,79.50
2017-11-27T02:03:43.679Z,79.30
2017-11-27T02:06:12.051Z,80.30
2017-11-27T02:08:40.292Z,80.50
2017-11-27T02:11:08.615Z,80.20
2017-11-27T02:13:36.855Z,79.00
2017-11-27T02:16:05.087Z,79.30
2017-11-27T02:18:33.353Z,79.30
2017-11-27T02:21:01.580Z,80.70
2017-11-27T02:23:30.576Z,79.50
2017-11-27T02:25:59.599Z,79.70
2017-11-27T02:28:27.831Z,79.70
2017-11-27T02:30:56.074Z,79.70
2017-11-27T02:33:24.404Z,79.20
2017-11-27T02:35:53.561Z,80.40
2017-11-27T02:38:21.805Z,80.30
2017-11-27T02:40:50.055Z,81.30
2017-11-27T02:43:19.060Z,79.10
2017-11-27T02:45:48.055Z,78.30
2017-11-27T02:48:16.310Z,78.30
2017-11-27T02:50:44.548Z,80.10
2017-11-27T02:53:12.787Z,80.60
2017-11-27T02:55:41.104Z,80.10
2017-11-27T02:58:09.339Z,79.60
2017-11-27T03:00:37.577Z,78.40
2017-11-27T03:03:05.835Z,78.90
2017-11-27T03:05:35.027Z,78.50
2017-11-27T03:08:03.447Z,78.60
2017-11-27T03:10:32.474Z,77.70
2017-11-27T03:13:00.719Z,77.60
2017-11-27T03:15:28.962Z,77.40
2017-11-27T03:17:57.675Z,78.30
2017-11-27T03:20:25.917Z,79.60
2017-11-27T03:22:54.142Z,80.10
2017-11-27T03:25:23.173Z,81.80
2017-11-27T03:27:51.412Z,81.80
2017-11-27T03:30:20.425Z,79.50
2017-11-27T03:32:48.689Z,79.50
2017-11-27T03:35:16.911Z,79.80
2017-11-27T03:37:45.151Z,78.90
2017-11-27T03:40:13.653Z,79.40
2017-11-27T03:42:41.891Z,78.20
2017-11-27T03:45:10.128Z,76.80
2017-11-27T03:47:38.390Z,76.90
2017-11-27T03:50:06.620Z,77.30
2017-11-27T03:52:34.854Z,76.80
2017-11-27T03:55:03.111Z,78.10
2017-11-27T03:57:31.352Z,79.00
2017-11-27T04:00:00.352Z,78.70
2017-11-27T04:02:29.091Z,78.60
2017-11-27T04:04:58.277Z,79.10
2017-11-27T04:07:26.517Z,78.80
2017-11-27T04:09:54.799Z,79.30
2017-11-27T04:12:23.040Z,79.70
2017-11-27T04:14:51.387Z,79.60
2017-11-27T04:17:19.625Z,80.10
2017-11-27T04:19:47.860Z,80.90
2017-11-27T04:22:16.089Z,81.00
2017-11-27T04:24:44.467Z,81.30
2017-11-27T04:27:12.702Z,81.00
2017-11-27T04:29:40.943Z,79.60
2017-11-27T04:32:09.200Z,79.20
2017-11-27T04:34:37.434Z,78.30
2017-11-27T04:37:05.672Z,76.90
2017-11-27T04:39:33.937Z,76.70
2017-11-27T04:42:02.169Z,76.00
2017-11-27T04:44:31.176Z,74.90
2017-11-27T04:46:59.892Z,74.80
2017-11-27T04:49:28.127Z,75.00
2017-11-27T04:51:56.359Z,75.70
2017-11-27T04:54:24.615Z,77.40
2017-11-27T04:56:52.851Z,77.10
2017-11-27T04:59:23.248Z,75.40
2017-11-27T05:01:51.555Z,73.60
2017-11-27T05:04:19.792Z,74.00
2017-11-27T05:06:48.031Z,73.60
2017-11-27T05:09:16.531Z,73.50
2017-11-27T05:11:44.996Z,75.00
2017-11-27T05:14:13.236Z,74.70
2017-11-27T05:16:41.500Z,75.90
2017-11-27T05:19:09.735Z,75.60
2017-11-27T05:21:38.034Z,74.30
2017-11-27T05:24:06.291Z,73.50
2017-11-27T05:26:34.531Z,75.00
2017-11-27T05:29:03.523Z,73.50
2017-11-27T05:31:32.863Z,73.30
2017-11-27T05:34:01.097Z,73.30
2017-11-27T05:36:29.331Z,74.00
2017-11-27T05:38:58.006Z,74.00
2017-11-27T05:41:26.360Z,74.20
2017-11-27T05:43:54.641Z,73.60
2017-11-27T05:46:22.899Z,72.90
2017-11-27T05:48:55.979Z,73.40
2017-11-27T05:51:24.815Z,74.00
2017-11-27T05:53:53.060Z,74.20
2017-11-27T05:56:21.486Z,76.60
2017-11-27T05:58:49.739Z,77.30
2017-11-27T06:03:52.644Z,76.90
2017-11-27T06:06:20.885Z,78.50
2017-11-27T06:08:49.895Z,78.00
2017-11-27T06:11:18.347Z,78.00
2017-11-27T06:13:46.944Z,77.10
2017-11-27T06:16:15.999Z,79.10
2017-11-27T06:18:45.240Z,79.10
2017-11-27T06:21:15.231Z,78.10
2017-11-27T06:23:43.475Z,78.00
2017-11-27T06:26:15.591Z,78.70
2017-11-27T06:28:43.831Z,79.70
2017-11-27T06:31:12.063Z,79.20
2017-11-27T06:33:40.577Z,79.70
2017-11-27T06:36:08.812Z,79.50
2017-11-27T06:38:37.819Z,79.80
2017-11-27T06:41:06.836Z,79.60
2017-11-27T06:43:35.144Z,79.60
2017-11-27T06:46:03.511Z,81.00
2017-11-27T06:48:31.768Z,78.80
2017-11-27T06:51:00.004Z,80.70
2017-11-27T06:53:29.019Z,81.50
2017-11-27T06:55:57.424Z,81.40
2017-11-27T06:58:25.661Z,80.30
2017-11-27T07:00:53.894Z,80.00
2017-11-27T07:03:22.160Z,79.80
2017-11-27T07:05:50.545Z,79.80
2017-11-27T07:08:18.785Z,79.00
2017-11-27T07:10:47.043Z,79.30
2017-11-27T07:13:16.057Z,79.50
2017-11-27T07:15:44.716Z,79.40
2017-11-27T07:18:13.956Z,79.90
2017-11-27T07:20:42.195Z,79.80
2017-11-27T07:23:10.436Z,78.00
2017-11-27T07:25:38.713Z,77.70
2017-11-27T07:28:06.937Z,79.90
2017-11-27T07:30:35.939Z,79.80
2017-11-27T07:33:04.202Z,79.80
2017-11-27T07:35:32.431Z,80.00
2017-11-27T07:38:06.627Z,79.50
2017-11-27T07:40:34.859Z,79.00
2017-11-27T07:43:04.219Z,78.20
2017-11-27T07:45:32.483Z,78.10
2017-11-27T07:48:00.712Z,78.60
2017-11-27T07:50:29.714Z,78.10
2017-11-27T07:52:58.744Z,77.80
2017-11-27T07:55:26.976Z,77.80
2017-11-27T07:57:55.219Z,78.40
2017-11-27T08:00:23.880Z,78.30
2017-11-27T08:02:52.116Z,76.80
2017-11-27T08:05:20.346Z,76.70
2017-11-27T08:07:48.603Z,76.20
2017-11-27T08:10:16.834Z,75.90
2017-11-27T08:12:45.837Z,75.50
2017-11-27T08:15:14.859Z,75.80
2017-11-27T08:17:43.404Z,75.60
2017-11-27T08:20:12.413Z,74.40
2017-11-27T08:22:41.526Z,74.30
2017-11-27T08:25:09.756Z,74.30
2017-11-27T08:27:38.320Z,75.10
2017-11-27T08:30:06.579Z,74.80
2017-11-27T08:32:34.820Z,73.30
2017-11-27T08:35:03.058Z,74.50
2017-11-27T08:37:31.319Z,72.40
2017-11-27T08:39:59.601Z,69.90
2017-11-27T08:42:27.981Z,70.30
2017-11-27T08:44:56.670Z,71.20
2017-11-27T08:47:24.884Z,71.20
2017-11-27T08:49:53.887Z,70.40
2017-11-27T08:52:23.034Z,68.40
2017-11-27T08:54:51.258Z,68.30
2017-11-27T08:57:20.260Z,69.20
2017-11-27T08:59:48.520Z,69.10
2017-11-27T09:02:16.860Z,67.90
2017-11-27T09:04:45.858Z,68.90
2017-11-27T09:07:14.266Z,68.90
2017-11-27T09:09:43.354Z,68.00
2017-11-27T09:12:11.612Z,69.20
2017-11-27T09:14:39.875Z,67.30
2017-11-27T09:17:08.116Z,68.50
2017-11-27T09:19:36.883Z,67.40
2017-11-27T09:22:05.905Z,70.00
2017-11-27T09:24:34.169Z,69.20
2017-11-27T09:27:02.405Z,66.80
2017-11-27T09:29:31.058Z,68.00
2017-11-27T09:31:59.300Z,67.90
2017-11-27T09:34:27.535Z,67.80
2017-11-27T09:36:55.805Z,69.50
2017-11-27T09:39:24.038Z,69.30
2017-11-27T09:41:52.275Z,69.00
2017-11-27T09:44:20.534Z,69.00
2017-11-27T09:46:48.778Z,69.50
2017-11-27T09:49:17.027Z,70.20
2017-11-27T09:51:45.548Z,71.60
2017-11-27T09:54:13.783Z,69.90
2017-11-27T09:56:42.024Z,68.50
2017-11-27T09:59:10.284Z,68.90
2017-11-27T10:01:38.512Z,68.90
2017-11-27T10:04:06.756Z,68.10
2017-11-27T10:06:35.010Z,69.70
2017-11-27T10:09:03.248Z,69.80
2017-11-27T10:11:32.250Z,69.00
2017-11-27T10:14:00.812Z,69.00
2017-11-27T10:16:29.155Z,69.30
2017-11-27T10:18:57.372Z,68.90
2017-11-27T10:21:26.691Z,69.50
2017-11-27T10:23:55.692Z,69.90
2017-11-27T10:26:23.932Z,69.90
2017-11-27T10:28:52.190Z,69.70
2017-11-27T10:31:20.464Z,70.00
2017-11-27T10:33:48.702Z,71.00
2017-11-27T10:36:17.263Z,71.60
2017-11-27T10:38:46.266Z,73.90
2017-11-27T10:41:15.288Z,74.00
2017-11-27T10:43:43.544Z,74.00
2017-11-27T10:46:11.788Z,73.80
2017-11-27T10:48:40.026Z,74.30
2017-11-27T10:51:08.304Z,73.90
2017-11-27T10:53:36.543Z,72.80
2017-11-27T10:56:05.543Z,72.90
2017-11-27T10:58:34.253Z,72.80
2017-11-27T11:01:05.371Z,72.90
2017-11-27T11:03:33.602Z,72.70
2017-11-27T11:06:01.872Z,72.40
2017-11-27T11:08:30.094Z,71.00
2017-11-27T11:10:58.336Z,72.20
2017-11-27T11:13:26.600Z,71.30
2017-11-27T11:15:54.834Z,71.60
2017-11-27T11:18:23.071Z,71.60
2017-11-27T11:20:51.808Z,71.30
2017-11-27T11:23:20.191Z,71.20
2017-11-27T11:25:48.484Z,71.50
2017-11-27T11:28:16.747Z,72.90
2017-11-27T11:30:44.981Z,72.90
2017-11-27T11:33:13.984Z,73.20
2017-11-27T11:35:42.240Z,74.00
2017-11-27T11:38:10.471Z,75.20
2017-11-27T11:40:38.721Z,75.30
2017-11-27T11:43:07.279Z,75.60
2017-11-27T11:45:35.511Z,74.30
2017-11-27T11:48:03.777Z,75.00
2017-11-27T11:50:32.035Z,75.20
2017-11-27T11:53:00.268Z,75.00
2017-11-27T11:55:28.513Z,74.70
2017-11-27T11:57:56.763Z,75.30
2017-11-27T12:00:24.999Z,75.10
2017-11-27T12:02:53.253Z,75.60
2017-11-27T12:05:21.787Z,76.40
2017-11-27T12:07:50.020Z,77.40
2017-11-27T12:10:18.254Z,77.10
2017-11-27T12:12:46.511Z,77.30
2017-11-27T12:15:15.516Z,77.80
2017-11-27T12:17:43.750Z,77.70
2017-11-27T12:20:12.015Z,75.50
2017-11-27T12:22:40.251Z,76.50
2017-11-27T12:25:08.699Z,76.80
2017-11-27T12:27:38.140Z,79.00
2017-11-27T12:30:06.388Z,78.90
2017-11-27T12:32:36.295Z,77.00
2017-11-27T12:35:05.324Z,77.80
2017-11-27T12:37:33.602Z,77.70
2017-11-27T12:40:01.856Z,77.60
2017-11-27T12:42:30.095Z,79.10
2017-11-27T12:44:58.323Z,78.70
2017-11-27T12:47:26.572Z,78.70
2017-11-27T12:49:55.023Z,78.70
2017-11-27T12:52:23.265Z,80.30
2017-11-27T12:54:51.499Z,80.50
2017-11-27T12:57:19.758Z,81.40
2017-11-27T12:59:48.000Z,81.20
2017-11-27T13:02:17.396Z,80.50
2017-11-27T13:04:45.653Z,80.40
2017-11-27T13:07:13.883Z,80.90
2017-11-27T13:09:42.121Z,82.20
2017-11-27T13:12:10.434Z,81.70
2017-11-27T13:14:38.672Z,82.20
2017-11-27T13:17:06.913Z,81.50
2017-11-27T13:19:35.176Z,81.20
2017-11-27T13:22:03.411Z,81.50
2017-11-27T13:24:31.652Z,81.20
2017-11-27T13:27:00.975Z,83.60
2017-11-27T13:29:29.207Z,83.50
2017-11-27T13:31:57.439Z,84.80
2017-11-27T13:34:25.923Z,85.30
2017-11-27T13:36:54.155Z,85.60
2017-11-27T13:39:23.155Z,85.40
2017-11-27T13:41:52.508Z,86.30
2017-11-27T13:44:20.751Z,86.20
2017-11-27T13:46:48.979Z,84.20
2017-11-27T13:49:17.239Z,85.90
2017-11-27T13:51:45.467Z,86.20
2017-11-27T13:54:13.702Z,86.00
2017-11-27T13:56:42.461Z,86.20
2017-11-27T13:59:10.718Z,85.10
2017-11-27T14:01:38.944Z,85.40
2017-11-27T14:04:07.204Z,86.90
2017-11-27T14:06:35.593Z,86.90
2017-11-27T14:09:03.827Z,88.40
2017-11-27T14:11:32.079Z,88.70
2017-11-27T14:14:01.087Z,90.00
2017-11-27T14:16:30.112Z,88.10
2017-11-27T14:18:58.806Z,88.00
2017-11-27T14:21:27.035Z,88.10
2017-11-27T14:23:55.274Z,88.10
2017-11-27T14:26:23.608Z,87.30
2017-11-27T14:28:52.283Z,87.90
2017-11-27T14:31:21.291Z,90.10
2017-11-27T14:33:49.552Z,90.10
2017-11-27T14:36:17.788Z,90.50
2017-11-27T14:38:46.040Z,91.20
2017-11-27T14:41:14.523Z,90.30
2017-11-27T14:43:42.756Z,90.70
2017-11-27T14:46:10.995Z,90.80
2017-11-27T14:48:39.281Z,90.00
2017-11-27T14:51:07.511Z,90.30
2017-11-27T14:53:35.751Z,89.80
2017-11-27T14:56:04.779Z,91.00
2017-11-27T14:58:33.028Z,90.90
2017-11-27T15:01:01.264Z,90.70
2017-11-27T15:03:29.932Z,91.60
2017-11-27T15:05:58.236Z,91.70
2017-11-27T15:08:26.463Z,92.50
2017-11-27T15:10:55.173Z,92.20
2017-11-27T15:13:23.403Z,91.70
2017-11-27T15:15:52.415Z,92.30
2017-11-27T15:18:21.432Z,92.40
2017-11-27T15:20:49.675Z,92.50
2017-11-27T15:23:17.912Z,92.40
2017-11-27T15:25:46.360Z,93.30
2017-11-27T15:28:14.619Z,94.70
2017-11-27T15:30:43.739Z,93.10
2017-11-27T15:33:12.005Z,93.00
2017-11-27T15:35:40.248Z,93.40
2017-11-27T15:38:08.484Z,92.80
2017-11-27T15:40:36.951Z,93.50
2017-11-27T15:43:05.227Z,93.70
2017-11-27T15:45:33.452Z,93.20
2017-11-27T15:48:01.985Z,93.90
2017-11-27T15:50:30.218Z,93.80
2017-11-27T15:52:58.454Z,93.80
2017-11-27T15:55:26.711Z,94.70
2017-11-27T15:57:54.963Z,94.80
2017-11-27T16:00:23.229Z,95.10
2017-11-27T16:02:52.252Z,94.90
2017-11-27T16:05:20.487Z,94.80
2017-11-27T16:07:48.727Z,95.20
2017-11-27T16:10:17.108Z,95.40
2017-11-27T16:12:45.347Z,95.20
2017-11-27T16:15:13.583Z,95.70
2017-11-27T16:17:42.860Z,95.40
2017-11-27T16:20:11.087Z,95.40
2017-11-27T16:22:39.327Z,95.40
2017-11-27T16:25:07.612Z,96.00
2017-11-27T16:27:35.843Z,96.40
2017-11-27T16:30:04.080Z,96.10
2017-11-27T16:32:33.442Z,96.20
2017-11-27T16:35:01.686Z,96.20
2017-11-27T16:37:29.924Z,96.80
2017-11-27T16:39:58.188Z,96.10
2017-11-27T16:42:26.430Z,95.90
2017-11-27T16:44:54.663Z,95.40
2017-11-27T16:47:23.684Z,95.10
2017-11-27T16:49:51.912Z,95.10
2017-11-27T16:52:21.663Z,95.80
2017-11-27T16:54:51.000Z,95.90
2017-11-27T16:57:19.229Z,96.00
2017-11-27T16:59:47.476Z,95.40
2017-11-27T17:02:15.726Z,95.40
2017-11-27T17:04:43.973Z,95.00
2017-11-27T17:07:12.259Z,95.50
2017-11-27T17:09:40.790Z,96.00
2017-11-27T17:12:09.252Z,95.60
2017-11-27T17:14:37.619Z,95.20
2017-11-27T17:17:06.041Z,94.50
2017-11-27T17:19:34.388Z,94.70
2017-11-27T17:22:02.631Z,95.30
2017-11-27T17:24:30.889Z,95.90
2017-11-27T17:26:59.916Z,96.40
2017-11-27T17:29:28.223Z,96.40
2017-11-27T17:31:56.491Z,95.20
2017-11-27T17:34:24.767Z,95.50
2017-11-27T17:36:53.053Z,95.30
2017-11-27T17:39:23.355Z,94.90
2017-11-27T17:41:53.804Z,94.80
2017-11-27T17:44:22.187Z,95.30
2017-11-27T17:46:50.449Z,96.50
2017-11-27T17:49:20.787Z,96.70
2017-11-27T17:51:49.052Z,96.00
2017-11-27T17:54:17.430Z,96.50
2017-11-27T17:56:45.647Z,96.10
2017-11-27T17:59:14.805Z,96.30
2017-11-27T18:01:43.117Z,96.30
2017-11-27T18:04:11.357Z,96.00
2017-11-27T18:06:39.671Z,96.10
2017-11-27T18:09:08.167Z,96.50
2017-11-27T18:11:37.211Z,96.10
2017-11-27T18:14:06.453Z,96.00
2017-11-27T18:16:36.838Z,96.10
2017-11-27T18:19:05.364Z,95.80
2017-11-27T18:21:37.499Z,96.30
2017-11-27T18:24:07.924Z,96.30
2017-11-27T18:26:36.500Z,95.60
2017-11-27T18:29:04.748Z,96.70
2017-11-27T18:31:33.066Z,96.70
2017-11-27T18:34:01.761Z,96.30
2017-11-27T18:36:30.173Z,96.20
2017-11-27T18:38:59.319Z,96.10
2017-11-27T18:41:28.763Z,96.00
2017-11-27T18:43:59.028Z,96.20
2017-11-27T18:46:27.268Z,96.20
2017-11-27T18:48:55.507Z,95.10
2017-11-27T18:51:24.734Z,95.40
2017-11-27T18:53:52.974Z,95.50
2017-11-27T18:56:21.299Z,96.30
2017-11-27T18:58:51.722Z,95.40
2017-11-27T19:01:21.947Z,95.20
2017-11-27T19:03:50.959Z,95.00
2017-11-27T19:06:19.440Z,94.90
2017-11-27T19:08:47.696Z,95.40
2017-11-27T19:11:16.954Z,96.70
2017-11-27T19:13:45.395Z,96.60
2017-11-27T19:16:14.436Z,95.40
2017-11-27T19:18:42.676Z,95.40
2017-11-27T19:21:11.464Z,96.20
2017-11-27T19:23:39.789Z,95.90
2017-11-27T19:26:08.160Z,95.90
2017-11-27T19:28:36.635Z,95.50
2017-11-27T19:31:04.925Z,95.60
2017-11-27T19:33:33.354Z,95.60
2017-11-27T19:36:01.727Z,95.30
2017-11-27T19:38:30.059Z,95.80
2017-11-27T19:40:58.439Z,96.00
2017-11-27T19:43:27.475Z,96.20
2017-11-27T19:45:56.727Z,95.00
2017-11-27T19:48:25.135Z,95.00
2017-11-27T19:50:54.339Z,95.50
2017-11-27T19:53:22.787Z,95.40
2017-11-27T19:55:51.163Z,95.60
2017-11-27T19:58:19.732Z,95.50
2017-11-27T20:00:48.433Z,95.80
2017-11-27T20:03:16.652Z,95.30
2017-11-27T20:05:45.690Z,95.70
2017-11-27T20:08:14.020Z,95.60
2017-11-27T20:10:43.041Z,96.90
2017-11-27T20:13:11.395Z,96.90
2017-11-27T20:15:40.419Z,96.40
2017-11-27T20:18:08.927Z,96.40
2017-11-27T20:20:38.397Z,96.50
2017-11-27T20:23:06.717Z,96.20
2017-11-27T20:25:35.105Z,95.90
2017-11-27T20:28:03.495Z,95.30
2017-11-27T20:30:31.732Z,96.50
2017-11-27T20:32:59.972Z,96.80
2017-11-27T20:35:30.928Z,96.70
2017-11-27T20:37:59.183Z,96.40
2017-11-27T20:40:28.229Z,96.90
2017-11-27T20:42:56.472Z,96.90
2017-11-27T20:45:24.883Z,96.70
2017-11-27T20:47:53.155Z,96.10
2017-11-27T20:50:22.600Z,96.20
2017-11-27T20:52:51.876Z,96.40
2017-11-27T20:55:20.276Z,96.50
2017-11-27T20:57:50.857Z,96.60
2017-11-27T21:00:20.077Z,96.60
2017-11-27T21:02:48.320Z,97.30
2017-11-27T21:05:16.592Z,97.30
2017-11-27T21:07:44.822Z,96.70
2017-11-27T21:10:14.067Z,96.70
2017-11-27T21:12:42.336Z,96.50
2017-11-27T21:15:10.568Z,96.90
2017-11-27T21:17:38.813Z,96.70
2017-11-27T21:20:07.495Z,96.90
2017-11-27T21:22:35.739Z,96.50
2017-11-27T21:25:03.984Z,96.70
2017-11-27T21:27:32.271Z,96.70
2017-11-27T21:30:00.508Z,96.10
2017-11-27T21:32:28.764Z,96.30
2017-11-27T21:34:58.976Z,95.80
2017-11-27T21:37:27.980Z,96.10
2017-11-27T21:39:56.228Z,96.10
2017-11-27T21:42:24.768Z,96.30
2017-11-27T21:44:53.084Z,96.20
2017-11-27T21:47:22.083Z,96.50
2017-11-27T21:49:51.145Z,96.20
2017-11-27T21:52:19.372Z,96.20
2017-11-27T21:54:47.603Z,96.40
2017-11-27T21:57:15.864Z,97.20
2017-11-27T21:59:44.104Z,96.50
2017-11-27T22:02:12.335Z,96.20
2017-11-27T22:04:40.937Z,96.80
2017-11-27T22:07:09.167Z,96.40
2017-11-27T22:09:37.412Z,96.70
2017-11-27T22:12:05.675Z,96.20
2017-11-27T22:14:33.916Z,96.60
2017-11-27T22:17:02.147Z,96.90
2017-11-27T22:19:30.408Z,96.20
2017-11-27T22:21:59.411Z,96.10
2017-11-27T22:24:28.411Z,96.40
2017-11-27T22:26:56.844Z,96.40
2017-11-27T22:29:25.083Z,96.60
2017-11-27T22:31:53.331Z,96.70
2017-11-27T22:34:22.501Z,96.50
2017-11-27T22:36:50.982Z,96.10
2017-11-27T22:39:19.216Z,96.20
2017-11-27T22:41:47.470Z,96.40
2017-11-27T22:44:15.711Z,96.30
2017-11-27T22:46:43.943Z,96.00
2017-11-27T22:49:12.383Z,96.30
2017-11-27T22:51:40.615Z,96.50
2017-11-27T22:54:08.843Z,96.50
2017-11-27T22:56:37.307Z,96.30
2017-11-27T22:59:06.311Z,95.80
2017-11-27T23:01:35.309Z,95.90
2017-11-27T23:04:04.339Z,96.00
2017-11-27T23:06:32.571Z,96.00
2017-11-27T23:09:00.902Z,95.20
2017-11-27T23:11:29.203Z,95.60
2017-11-27T23:13:57.441Z,96.20
2017-11-27T23:16:25.681Z,95.80
2017-11-27T23:18:53.943Z,95.90
2017-11-27T23:21:22.175Z,95.90
2017-11-27T23:23:50.412Z,95.70
2017-11-27T23:26:19.444Z,96.60
2017-11-27T23:28:47.680Z,96.60
2017-11-27T23:31:15.922Z,96.10
2017-11-27T23:33:44.236Z,95.40
2017-11-27T23:36:13.239Z,95.90
2017-11-27T23:38:42.523Z,95.70
2017-11-27T23:41:11.543Z,96.70
2017-11-27T23:43:39.787Z,96.60
2017-11-27T23:46:08.014Z,97.00
2017-11-27T23:48:36.266Z,97.00
2017-11-27T23:51:04.508Z,96.50
2017-11-27T23:53:32.759Z,96.70
2017-11-27T23:56:01.296Z,96.10
2017-11-27T23:58:29.531Z,96.60
